Terminal Aerodrome Forecast
Issued by NWS

Home | Current Version | Previous Version | Text Only | Print | Product List | Glossary On
Versions: 1 2 3 4 5 6 7 8 9 10 11 12 13 14 15 16 17
000
FTUS43 KJKL 231732
TAFSME
TAF
KSME 231732Z 2318/2418 21006KT P6SM SCT030 BKN050
     FM240100 18003KT P6SM SCT200
     FM241000 19005KT P6SM SCT250 WS020/20035KT
     FM241300 19010KT P6SM FEW035 SCT200
     FM241700 21013G20KT P6SM SCT040 SCT250=

USA.gov is the U.S. government's official web portal to all federal, state and local government web resources and services.